Time;durP1;ratioP1;P1;durP2;ratioP2;P2;SDS_P1;SDS_P2;PMS_P1;PMS_P2;Temp;Humidity;BMP_temperature;BMP_pressure;BME280_temperature;BME280_humidity;BME280_pressure;Samples;Min_cycle;Max_cycle;Signal;HPM_P1;HPM_P2
2023/12/24 00:00:18;;;;;;;12.65;7.30;;;9.50;99.90;;;;;;5036887;28;20407;-66
2023/12/24 00:02:44;;;;;;;17.30;7.28;;;9.40;99.90;;;;;;5036678;28;20021;-66
2023/12/24 00:05:09;;;;;;;15.20;7.82;;;9.50;99.90;;;;;;5036418;28;20116;-66
2023/12/24 00:07:35;;;;;;;13.80;7.45;;;9.50;99.90;;;;;;5036749;28;20029;-67
2023/12/24 00:10:00;;;;;;;13.48;7.95;;;9.50;99.90;;;;;;5036140;28;20437;-66
2023/12/24 00:12:26;;;;;;;15.88;7.35;;;9.50;99.90;;;;;;5036337;28;20531;-65
2023/12/24 00:14:53;;;;;;;12.07;6.85;;;9.50;99.90;;;;;;5036648;28;20029;-66
2023/12/24 00:17:19;;;;;;;14.52;7.25;;;9.50;99.90;;;;;;5036422;28;20022;-66
2023/12/24 00:19:44;;;;;;;12.15;6.80;;;9.50;99.90;;;;;;5036385;28;20028;-67
2023/12/24 00:22:11;;;;;;;15.23;7.78;;;9.50;99.90;;;;;;5036622;28;20048;-66
2023/12/24 00:24:36;;;;;;;16.42;7.93;;;9.40;99.90;;;;;;5036366;28;20107;-66
2023/12/24 00:27:02;;;;;;;12.02;7.00;;;9.40;99.90;;;;;;5036354;28;20072;-68
2023/12/24 00:29:28;;;;;;;10.90;6.60;;;9.40;99.90;;;;;;5036142;28;20045;-66
2023/12/24 00:31:53;;;;;;;14.20;6.65;;;9.40;99.90;;;;;;5036082;28;20034;-66
2023/12/24 00:34:19;;;;;;;13.65;7.95;;;9.40;99.90;;;;;;5035995;28;20033;-66
2023/12/24 00:36:44;;;;;;;12.27;8.02;;;9.50;99.90;;;;;;5036039;28;20030;-66
2023/12/24 00:39:10;;;;;;;17.48;8.25;;;9.50;99.90;;;;;;5035988;28;20036;-66
2023/12/24 00:41:39;;;;;;;13.35;8.25;;;9.50;99.90;;;;;;5035862;28;20028;-66
2023/12/24 00:44:05;;;;;;;13.90;8.27;;;9.50;99.90;;;;;;5036145;28;20021;-66
2023/12/24 00:46:30;;;;;;;21.75;8.95;;;9.50;99.90;;;;;;5036179;28;20026;-66
2023/12/24 00:48:56;;;;;;;14.43;9.02;;;9.50;99.90;;;;;;5035902;28;20025;-66
2023/12/24 00:51:21;;;;;;;16.15;8.70;;;9.50;99.90;;;;;;5035541;28;20018;-66
2023/12/24 00:53:47;;;;;;;17.77;8.40;;;9.50;99.90;;;;;;5035934;28;20388;-66
2023/12/24 00:56:13;;;;;;;12.70;9.25;;;9.50;99.90;;;;;;5034784;28;20063;-66
2023/12/24 00:58:38;;;;;;;15.35;9.30;;;9.50;99.90;;;;;;5035684;28;20037;-66
2023/12/24 01:01:04;;;;;;;15.35;9.30;;;9.50;99.90;;;;;;5035590;28;20032;-66
2023/12/24 01:03:29;;;;;;;15.48;9.60;;;9.40;99.90;;;;;;5035462;28;20070;-66
2023/12/24 01:05:55;;;;;;;19.23;9.48;;;9.40;99.90;;;;;;5035454;28;20475;-66
2023/12/24 01:08:20;;;;;;;18.70;9.73;;;9.40;99.90;;;;;;5035649;28;20037;-66
2023/12/24 01:10:47;;;;;;;20.17;10.40;;;9.40;99.90;;;;;;5035360;28;20049;-65
2023/12/24 01:13:18;;;;;;;20.70;10.00;;;9.40;99.90;;;;;;5035604;28;20471;-66
2023/12/24 01:15:46;;;;;;;28.40;10.88;;;9.40;99.90;;;;;;5035218;28;20025;-66
2023/12/24 01:18:12;;;;;;;17.92;10.32;;;9.40;99.90;;;;;;5035038;28;20032;-66
2023/12/24 01:20:38;;;;;;;19.40;11.10;;;9.50;99.90;;;;;;5035271;28;20489;-66
2023/12/24 01:23:04;;;;;;;21.35;11.40;;;9.40;99.90;;;;;;5035478;28;20021;-66
2023/12/24 01:25:29;;;;;;;20.58;10.70;;;9.50;99.90;;;;;;5035151;28;20140;-66
2023/12/24 01:27:55;;;;;;;17.90;11.70;;;9.60;99.90;;;;;;5035215;28;20091;-66
2023/12/24 01:30:20;;;;;;;14.32;10.93;;;9.60;99.90;;;;;;5035226;28;20037;-67
2023/12/24 01:32:46;;;;;;;17.08;11.02;;;9.60;99.90;;;;;;5035169;28;20033;-67
2023/12/24 01:35:12;;;;;;;17.25;10.77;;;9.60;99.90;;;;;;5034965;28;20025;-66
2023/12/24 01:37:37;;;;;;;25.10;11.40;;;9.70;99.90;;;;;;5035118;28;20109;-66
2023/12/24 01:40:03;;;;;;;21.90;11.85;;;9.70;99.90;;;;;;5034682;28;20045;-67
2023/12/24 01:42:28;;;;;;;20.38;11.32;;;9.70;99.90;;;;;;5034925;28;20435;-66
2023/12/24 01:44:54;;;;;;;20.08;12.85;;;9.80;99.90;;;;;;5034570;28;20022;-66
2023/12/24 01:47:20;;;;;;;17.90;11.88;;;9.70;99.90;;;;;;5034727;28;20040;-66
2023/12/24 01:49:48;;;;;;;16.80;11.48;;;9.80;99.90;;;;;;5034752;28;20572;-66
2023/12/24 01:52:14;;;;;;;19.95;10.18;;;9.70;99.90;;;;;;5034823;28;20026;-66
2023/12/24 01:54:40;;;;;;;18.80;10.20;;;9.70;99.90;;;;;;5034759;28;20511;-66
2023/12/24 01:57:05;;;;;;;17.92;10.43;;;9.70;99.90;;;;;;5034604;28;20063;-66
2023/12/24 01:59:33;;;;;;;21.35;10.70;;;9.70;99.90;;;;;;5034520;28;20036;-66
2023/12/24 02:01:59;;;;;;;18.27;11.30;;;9.70;99.90;;;;;;5034615;28;20104;-66
2023/12/24 02:04:24;;;;;;;22.48;11.75;;;9.80;99.90;;;;;;5034389;28;20112;-65
2023/12/24 02:06:51;;;;;;;17.83;11.30;;;9.70;99.90;;;;;;5034344;28;20029;-66
2023/12/24 02:09:16;;;;;;;17.65;11.20;;;9.80;99.90;;;;;;5034503;28;20036;-66
2023/12/24 02:11:42;;;;;;;15.60;11.10;;;9.80;99.90;;;;;;5034019;28;20057;-65
2023/12/24 02:14:07;;;;;;;17.63;9.88;;;9.80;99.90;;;;;;5034420;28;20037;-66
2023/12/24 02:16:38;;;;;;;13.77;9.02;;;9.80;99.90;;;;;;5034216;28;20033;-66
2023/12/24 02:19:04;;;;;;;14.95;9.57;;;9.70;99.90;;;;;;5033235;28;20071;-67
2023/12/24 02:21:30;;;;;;;18.08;10.63;;;9.70;99.90;;;;;;5034362;28;20487;-66
2023/12/24 02:23:55;;;;;;;16.92;9.95;;;9.70;99.90;;;;;;5033969;28;20037;-66
2023/12/24 02:26:30;;;;;;;15.13;9.95;;;9.70;99.90;;;;;;5033725;28;20559;-66
2023/12/24 02:29:02;;;;;;;14.55;9.32;;;9.80;99.90;;;;;;5033919;28;20506;-66
2023/12/24 02:31:31;;;;;;;16.92;9.88;;;9.70;99.90;;;;;;5033872;28;20032;-66
2023/12/24 02:33:58;;;;;;;17.02;9.57;;;9.70;99.90;;;;;;5033837;28;20032;-66
2023/12/24 02:36:24;;;;;;;18.98;9.82;;;9.80;99.90;;;;;;5033794;28;20021;-66
2023/12/24 02:38:50;;;;;;;16.98;8.35;;;9.70;99.90;;;;;;5033752;28;20072;-66
2023/12/24 02:41:16;;;;;;;13.20;7.10;;;9.70;99.90;;;;;;5034068;28;20494;-66
2023/12/24 02:43:42;;;;;;;14.82;6.70;;;9.80;99.90;;;;;;5033741;28;20026;-67
2023/12/24 02:46:07;;;;;;;17.08;6.20;;;9.90;99.90;;;;;;5033757;28;20036;-66
2023/12/24 02:48:33;;;;;;;10.27;4.85;;;9.90;99.90;;;;;;5033469;28;20036;-66
2023/12/24 02:50:58;;;;;;;14.38;4.60;;;9.90;99.90;;;;;;5033529;28;20025;-66
2023/12/24 02:53:24;;;;;;;14.25;4.43;;;10.00;99.90;;;;;;5033535;28;20040;-66
2023/12/24 02:55:50;;;;;;;13.18;5.32;;;10.00;99.90;;;;;;5033415;28;20495;-66
2023/12/24 02:58:16;;;;;;;12.68;6.60;;;10.00;99.90;;;;;;5033457;28;20103;-66
2023/12/24 03:00:42;;;;;;;10.32;7.07;;;9.90;99.90;;;;;;5033484;28;20476;-66
2023/12/24 03:03:07;;;;;;;11.90;7.88;;;9.80;99.90;;;;;;5033189;28;20083;-66
2023/12/24 03:05:33;;;;;;;10.38;7.35;;;9.80;99.90;;;;;;5033632;28;20029;-66
2023/12/24 03:07:58;;;;;;;12.77;7.15;;;9.80;99.90;;;;;;5033310;28;20033;-66
2023/12/24 03:10:24;;;;;;;13.27;6.57;;;9.80;99.90;;;;;;5033053;28;20054;-66
2023/12/24 03:12:49;;;;;;;15.10;6.50;;;9.80;99.90;;;;;;5033263;28;20030;-66
2023/12/24 03:15:15;;;;;;;14.77;5.95;;;9.80;99.90;;;;;;5033136;28;20029;-66
2023/12/24 03:17:40;;;;;;;10.75;5.93;;;9.80;99.90;;;;;;5033242;28;20388;-66
2023/12/24 03:20:07;;;;;;;11.80;5.28;;;9.70;99.90;;;;;;5033056;28;20029;-66
2023/12/24 03:22:33;;;;;;;9.65;4.88;;;9.70;99.90;;;;;;5033194;28;20024;-66
2023/12/24 03:24:59;;;;;;;9.55;5.10;;;9.60;99.90;;;;;;5033071;28;20018;-66
2023/12/24 03:27:25;;;;;;;10.60;4.80;;;9.60;99.90;;;;;;5033160;28;20056;-66
2023/12/24 03:29:50;;;;;;;9.32;4.13;;;9.50;99.90;;;;;;5032903;28;20029;-66
2023/12/24 03:32:16;;;;;;;18.42;4.50;;;9.50;99.90;;;;;;5033256;28;20383;-66
2023/12/24 03:34:42;;;;;;;10.38;3.65;;;9.40;99.90;;;;;;5032986;28;20430;-66
2023/12/24 03:37:07;;;;;;;10.77;3.90;;;9.40;99.90;;;;;;5033066;28;20017;-66
2023/12/24 03:39:33;;;;;;;9.43;3.72;;;9.40;99.90;;;;;;5033112;28;20030;-66
2023/12/24 03:41:58;;;;;;;9.20;3.75;;;9.40;99.90;;;;;;5032898;28;20112;-66
2023/12/24 03:44:24;;;;;;;8.73;3.65;;;9.40;99.90;;;;;;5033074;28;20372;-66
2023/12/24 03:46:49;;;;;;;13.45;4.38;;;9.30;99.90;;;;;;5032951;28;20029;-66
2023/12/24 03:49:15;;;;;;;13.02;3.83;;;9.20;99.90;;;;;;5033296;28;20029;-66
2023/12/24 03:51:40;;;;;;;12.07;3.70;;;9.20;99.90;;;;;;5033005;28;20040;-66
2023/12/24 03:54:06;;;;;;;8.68;3.00;;;9.30;99.90;;;;;;5033187;28;20029;-66
2023/12/24 03:56:31;;;;;;;8.70;2.88;;;9.20;99.90;;;;;;5032931;28;20395;-66
2023/12/24 03:58:57;;;;;;;9.55;3.22;;;9.20;99.90;;;;;;5032887;28;20361;-66
2023/12/24 04:01:25;;;;;;;12.73;3.15;;;9.20;99.90;;;;;;5032842;28;20033;-66
2023/12/24 04:03:51;;;;;;;10.45;2.72;;;9.20;99.90;;;;;;5032839;28;20083;-66
2023/12/24 04:06:17;;;;;;;9.57;2.90;;;9.20;99.90;;;;;;5032908;28;20033;-66
2023/12/24 04:08:42;;;;;;;8.18;2.65;;;9.10;99.90;;;;;;5032784;28;20040;-66
2023/12/24 04:11:16;;;;;;;8.43;2.50;;;9.20;99.90;;;;;;5032681;28;20053;-66
2023/12/24 04:13:42;;;;;;;9.02;2.35;;;9.10;99.90;;;;;;5032772;28;20498;-66
2023/12/24 04:16:08;;;;;;;5.20;2.50;;;9.10;99.90;;;;;;5032592;28;20029;-65
2023/12/24 04:18:34;;;;;;;9.02;2.92;;;9.10;99.90;;;;;;5031506;28;20079;-66
2023/12/24 04:21:00;;;;;;;6.32;3.25;;;9.10;99.90;;;;;;5032666;28;20071;-65
2023/12/24 04:23:25;;;;;;;9.77;3.15;;;9.10;99.90;;;;;;5032387;28;20018;-66
2023/12/24 04:25:51;;;;;;;4.97;2.83;;;;;;;;;;5031456;28;20033;-66
2023/12/24 04:28:17;;;;;;;4.72;2.92;;;;;;;;;;5032601;28;20025;-66
2023/12/24 04:30:43;;;;;;;7.15;3.22;;;;;;;;;;5033067;28;20036;-65
2023/12/24 04:33:10;;;;;;;5.32;3.55;;;9.00;99.90;;;;;;5036229;28;20022;-66
2023/12/24 04:35:35;;;;;;;4.22;2.72;;;9.20;99.90;;;;;;5036144;28;20028;-66
2023/12/24 04:38:02;;;;;;;4.82;2.90;;;;;;;;;;5036112;28;20030;-66
2023/12/24 04:40:28;;;;;;;4.50;2.90;;;;;;;;;;5036305;28;20121;-65
2023/12/24 04:42:54;;;;;;;6.72;2.75;;;;;;;;;;5036142;28;20136;-65
2023/12/24 04:45:20;;;;;;;5.03;3.00;;;;;;;;;;5035784;28;20025;-66
2023/12/24 04:47:46;;;;;;;5.00;3.33;;;;;;;;;;5036081;28;20116;-66
2023/12/24 04:50:12;;;;;;;5.35;2.80;;;;;;;;;;5036023;28;20120;-65
2023/12/24 04:52:38;;;;;;;4.03;3.08;;;;;;;;;;5035989;28;20083;-66
2023/12/24 04:55:05;;;;;;;3.50;2.72;;;9.10;99.90;;;;;;5034802;28;20091;-66
2023/12/24 04:57:31;;;;;;;3.88;2.60;;;9.20;99.90;;;;;;5035995;28;20025;-66
2023/12/24 04:59:57;;;;;;;3.47;2.30;;;9.20;99.90;;;;;;5035436;28;20083;-66
2023/12/24 05:02:22;;;;;;;4.55;2.58;;;9.30;99.90;;;;;;5035803;28;20037;-66
2023/12/24 05:04:49;;;;;;;4.10;2.88;;;9.30;99.90;;;;;;5035772;28;20364;-66
2023/12/24 05:07:15;;;;;;;3.70;2.05;;;9.40;99.90;;;;;;5035564;28;20091;-66
2023/12/24 05:09:42;;;;;;;2.33;1.70;;;9.30;99.90;;;;;;5035548;28;20487;-66
2023/12/24 05:12:08;;;;;;;4.20;2.00;;;9.40;99.90;;;;;;5035494;28;20049;-67
2023/12/24 05:14:34;;;;;;;1.98;1.83;;;9.40;99.90;;;;;;5035221;28;20399;-66
2023/12/24 05:17:00;;;;;;;4.75;1.65;;;9.40;99.90;;;;;;5035605;28;20033;-66
2023/12/24 05:19:26;;;;;;;1.60;1.48;;;9.40;99.90;;;;;;5035515;28;20026;-66
2023/12/24 05:21:51;;;;;;;1.52;1.30;;;9.50;99.90;;;;;;5035297;28;20071;-66
2023/12/24 05:24:17;;;;;;;1.70;1.58;;;9.40;99.90;;;;;;5035272;28;20033;-66
2023/12/24 05:26:42;;;;;;;1.55;1.38;;;9.50;99.90;;;;;;5035390;28;20029;-66
2023/12/24 05:29:08;;;;;;;2.20;1.38;;;9.50;99.90;;;;;;5035274;28;20028;-67
2023/12/24 05:31:38;;;;;;;1.70;1.40;;;9.50;99.90;;;;;;5035299;28;20026;-66
2023/12/24 05:34:03;;;;;;;2.03;1.50;;;9.60;99.90;;;;;;5035312;28;20029;-66
2023/12/24 05:36:29;;;;;;;1.98;1.40;;;9.60;99.90;;;;;;5034929;28;20036;-67
2023/12/24 05:38:54;;;;;;;2.22;1.20;;;9.80;99.90;;;;;;5034940;28;20017;-67
2023/12/24 05:41:20;;;;;;;4.20;1.55;;;9.60;99.90;;;;;;5034732;28;20101;-66
2023/12/24 05:43:45;;;;;;;1.23;1.13;;;9.60;99.90;;;;;;5035044;28;20040;-66
2023/12/24 05:46:12;;;;;;;1.30;1.20;;;9.60;99.90;;;;;;5034860;28;20029;-67
2023/12/24 05:48:38;;;;;;;0.90;0.90;;;9.60;99.90;;;;;;5034690;28;20052;-67
2023/12/24 05:51:04;;;;;;;0.70;0.70;;;9.50;99.90;;;;;;5034751;28;20025;-66
2023/12/24 05:53:29;;;;;;;0.85;0.85;;;9.60;99.90;;;;;;5034664;28;20025;-65
2023/12/24 05:55:55;;;;;;;1.55;1.00;;;;;;;;;;5034482;28;20030;-65
2023/12/24 05:58:21;;;;;;;0.80;0.80;;;9.70;99.90;;;;;;5034563;28;20037;-65
2023/12/24 06:00:47;;;;;;;1.88;1.17;;;9.70;99.90;;;;;;5034603;28;20151;-65
2023/12/24 06:03:12;;;;;;;1.00;1.00;;;9.70;99.90;;;;;;5034680;28;20046;-65
2023/12/24 06:05:38;;;;;;;0.85;0.85;;;9.70;99.90;;;;;;5034503;28;20565;-65
2023/12/24 06:08:04;;;;;;;0.90;0.90;;;9.70;99.90;;;;;;5034503;28;20025;-65
2023/12/24 06:10:29;;;;;;;1.20;1.10;;;9.70;99.90;;;;;;5034138;28;20071;-65
2023/12/24 06:12:55;;;;;;;0.90;0.90;;;9.70;99.90;;;;;;5034282;28;20037;-65
2023/12/24 06:15:20;;;;;;;1.02;0.88;;;9.70;99.90;;;;;;5034245;28;20051;-65
2023/12/24 06:17:46;;;;;;;0.85;0.85;;;9.80;99.90;;;;;;5034194;28;20032;-65
2023/12/24 06:20:11;;;;;;;0.82;0.82;;;9.70;99.90;;;;;;5034339;28;20458;-65
2023/12/24 06:22:37;;;;;;;0.75;0.75;;;9.70;99.90;;;;;;5034202;28;20029;-66
2023/12/24 06:25:03;;;;;;;0.88;0.88;;;9.80;99.90;;;;;;5034120;28;20100;-65
2023/12/24 06:27:28;;;;;;;0.90;0.90;;;9.70;99.90;;;;;;5033955;28;20029;-65
2023/12/24 06:29:54;;;;;;;1.17;0.90;;;9.70;99.90;;;;;;5033990;28;20104;-66
2023/12/24 06:32:19;;;;;;;0.80;0.80;;;9.80;99.90;;;;;;5034138;28;20033;-65
2023/12/24 06:34:46;;;;;;;0.90;0.90;;;9.80;99.90;;;;;;5033857;28;20030;-65
2023/12/24 06:37:11;;;;;;;2.95;1.27;;;9.70;99.90;;;;;;5034035;28;20159;-65
2023/12/24 06:39:37;;;;;;;1.20;1.10;;;9.70;99.90;;;;;;5033715;28;20115;-64
2023/12/24 06:42:03;;;;;;;0.80;0.80;;;;;;;;;;5033991;28;20030;-65
2023/12/24 06:44:29;;;;;;;1.70;1.10;;;;;;;;;;5033907;28;20577;-65
2023/12/24 06:46:55;;;;;;;1.27;1.17;;;;;;;;;;5033886;28;20060;-65
2023/12/24 06:49:21;;;;;;;1.23;1.13;;;;;;;;;;5033660;28;20510;-65
2023/12/24 06:51:47;;;;;;;1.10;1.00;;;;;;;;;;5033602;28;20029;-65
2023/12/24 06:54:13;;;;;;;1.23;1.13;;;;;;;;;;5032798;28;20026;-65
2023/12/24 06:56:39;;;;;;;1.77;1.60;;;;;;;;;;5033553;28;20056;-65
2023/12/24 06:59:05;;;;;;;1.95;1.60;;;;;;;;;;5033764;28;20025;-65
2023/12/24 07:01:31;;;;;;;1.70;1.17;;;;;;;;;;5033177;28;20108;-65
2023/12/24 07:03:57;;;;;;;1.55;1.45;;;9.50;99.90;;;;;;5032467;28;20029;-65
2023/12/24 07:06:23;;;;;;;1.40;1.30;;;9.90;99.90;;;;;;5033397;28;20080;-66
2023/12/24 07:08:48;;;;;;;1.95;1.75;;;9.90;99.90;;;;;;5033346;28;20049;-65
2023/12/24 07:11:14;;;;;;;1.50;1.40;;;9.90;99.90;;;;;;5033118;28;20075;-65
2023/12/24 07:13:40;;;;;;;2.20;1.67;;;9.90;99.90;;;;;;5033482;28;20115;-64
2023/12/24 07:16:07;;;;;;;2.05;1.48;;;9.80;99.90;;;;;;5033246;28;20037;-65
2023/12/24 07:18:34;;;;;;;1.65;1.50;;;;;;;;;;5033165;28;20024;-65
2023/12/24 07:20:59;;;;;;;1.55;1.45;;;9.90;99.90;;;;;;5033225;28;20382;-65
2023/12/24 07:23:25;;;;;;;1.75;1.65;;;9.90;99.90;;;;;;5032934;28;20056;-64
2023/12/24 07:25:50;;;;;;;1.83;1.50;;;9.90;99.90;;;;;;5033394;28;20026;-65
2023/12/24 07:28:16;;;;;;;1.85;1.75;;;10.30;99.90;;;;;;5033331;28;20026;-66
2023/12/24 07:30:41;;;;;;;3.83;2.22;;;9.90;99.90;;;;;;5033202;28;20025;-65
2023/12/24 07:33:07;;;;;;;2.20;2.00;;;9.90;99.90;;;;;;5033220;28;20160;-65
2023/12/24 07:35:32;;;;;;;2.35;2.03;;;9.90;99.90;;;;;;5032918;28;20026;-65
2023/12/24 07:37:58;;;;;;;2.72;2.00;;;9.90;99.90;;;;;;5033004;28;20395;-65
2023/12/24 07:40:23;;;;;;;3.08;1.88;;;9.90;99.90;;;;;;5031838;28;20029;-65
2023/12/24 07:42:49;;;;;;;3.30;2.72;;;10.00;99.90;;;;;;5033036;28;20036;-65
2023/12/24 07:45:15;;;;;;;2.17;1.98;;;10.00;99.90;;;;;;5032972;28;20021;-65
2023/12/24 07:47:40;;;;;;;2.38;2.17;;;10.00;99.90;;;;;;5033040;28;20061;-66
2023/12/24 07:50:07;;;;;;;3.15;2.38;;;10.00;99.90;;;;;;5033174;28;20100;-65
2023/12/24 07:52:33;;;;;;;3.42;2.20;;;9.90;99.90;;;;;;5033021;28;20030;-65
2023/12/24 07:54:58;;;;;;;2.88;2.00;;;9.90;99.90;;;;;;5032827;28;20247;-65
2023/12/24 07:57:24;;;;;;;2.78;2.20;;;9.90;99.90;;;;;;5033072;28;20025;-65
2023/12/24 07:59:50;;;;;;;2.78;2.33;;;9.90;99.90;;;;;;5032900;28;20028;-65
2023/12/24 08:02:15;;;;;;;3.95;2.22;;;10.00;99.90;;;;;;5032846;28;20025;-65
2023/12/24 08:04:43;;;;;;;2.33;2.13;;;9.90;99.90;;;;;;5033440;28;20395;-65
2023/12/24 08:07:09;;;;;;;2.40;2.00;;;10.00;99.90;;;;;;5036876;28;20037;-65
2023/12/24 08:09:34;;;;;;;2.05;1.85;;;10.00;99.90;;;;;;5036707;28;20033;-65
2023/12/24 08:12:00;;;;;;;2.42;2.17;;;10.00;99.90;;;;;;5036415;28;20128;-65
2023/12/24 08:14:25;;;;;;;2.40;1.90;;;10.00;99.90;;;;;;5036426;28;20475;-65
2023/12/24 08:16:51;;;;;;;3.25;2.15;;;10.00;99.90;;;;;;5036712;28;20045;-64
2023/12/24 08:19:16;;;;;;;2.40;1.90;;;10.00;99.90;;;;;;5036464;28;20480;-64
2023/12/24 08:21:42;;;;;;;2.85;2.03;;;10.00;99.90;;;;;;5036414;28;20052;-64
2023/12/24 08:24:08;;;;;;;2.30;1.98;;;10.00;99.90;;;;;;5036428;28;20032;-65
2023/12/24 08:26:34;;;;;;;2.20;1.92;;;10.20;99.90;;;;;;5036230;28;20116;-64
2023/12/24 08:28:59;;;;;;;1.90;1.70;;;10.10;99.90;;;;;;5036389;28;20112;-64
2023/12/24 08:31:25;;;;;;;3.25;2.67;;;10.10;99.90;;;;;;5036340;28;20037;-65
2023/12/24 08:33:50;;;;;;;2.22;1.90;;;10.10;99.90;;;;;;5036195;28;20033;-64
2023/12/24 08:36:17;;;;;;;2.40;2.20;;;10.10;99.90;;;;;;5036086;28;20030;-64
2023/12/24 08:38:42;;;;;;;2.20;2.00;;;10.10;99.90;;;;;;5036324;28;20495;-64
2023/12/24 08:41:08;;;;;;;2.88;2.10;;;10.10;99.90;;;;;;5036167;28;20076;-65
2023/12/24 08:43:33;;;;;;;2.72;2.17;;;10.10;99.90;;;;;;5036234;28;20037;-64
2023/12/24 08:46:01;;;;;;;2.15;1.95;;;10.10;99.90;;;;;;5035702;28;20559;-64
2023/12/24 08:48:26;;;;;;;3.00;1.90;;;10.10;99.90;;;;;;5035978;28;20025;-65
2023/12/24 08:50:52;;;;;;;2.88;2.20;;;10.10;99.90;;;;;;5035770;28;20030;-65
2023/12/24 08:53:18;;;;;;;3.10;1.92;;;10.10;99.90;;;;;;5034738;28;20032;-65
2023/12/24 08:55:43;;;;;;;2.47;2.28;;;10.10;99.90;;;;;;5035648;28;20033;-65
2023/12/24 08:58:09;;;;;;;1.98;1.75;;;10.10;99.90;;;;;;5035887;28;20026;-65
2023/12/24 09:00:34;;;;;;;2.58;2.10;;;10.20;99.90;;;;;;5035481;28;20029;-65
2023/12/24 09:03:00;;;;;;;2.40;2.20;;;10.20;99.90;;;;;;5035654;28;20033;-65
2023/12/24 09:05:26;;;;;;;2.40;2.20;;;10.20;99.90;;;;;;5035798;28;20171;-64
2023/12/24 09:07:51;;;;;;;2.70;2.30;;;10.20;99.90;;;;;;5035740;28;20079;-65
2023/12/24 09:10:17;;;;;;;2.50;2.30;;;10.20;99.90;;;;;;5035368;28;20044;-65
2023/12/24 09:12:43;;;;;;;4.13;2.30;;;10.20;99.90;;;;;;5035569;28;20364;-65
2023/12/24 09:15:09;;;;;;;2.70;2.50;;;10.30;99.90;;;;;;5035464;28;20381;-64
2023/12/24 09:17:34;;;;;;;4.28;2.78;;;10.30;99.90;;;;;;5034904;28;20550;-65
2023/12/24 09:20:00;;;;;;;3.08;2.65;;;10.30;99.90;;;;;;5035341;28;20104;-65
2023/12/24 09:22:25;;;;;;;2.95;2.65;;;10.30;99.90;;;;;;5035428;28;20438;-65
2023/12/24 09:24:51;;;;;;;3.03;2.72;;;10.30;99.90;;;;;;5035469;28;20402;-65
2023/12/24 09:27:16;;;;;;;3.63;2.97;;;10.30;99.90;;;;;;5035631;28;20139;-65
2023/12/24 09:29:42;;;;;;;3.20;2.90;;;10.30;99.90;;;;;;5035396;28;20056;-65
2023/12/24 09:32:08;;;;;;;4.97;3.58;;;10.30;99.90;;;;;;5035380;28;20088;-65
2023/12/24 09:34:33;;;;;;;5.93;3.05;;;10.20;99.90;;;;;;5035332;28;20083;-65
2023/12/24 09:36:59;;;;;;;4.22;3.28;;;10.20;99.90;;;;;;5033868;28;20021;-64
2023/12/24 09:39:25;;;;;;;4.63;3.97;;;10.30;99.90;;;;;;5035207;28;20033;-65
2023/12/24 09:41:52;;;;;;;4.57;3.70;;;10.30;99.90;;;;;;5035197;28;20393;-65
2023/12/24 09:44:17;;;;;;;7.22;4.07;;;10.30;99.90;;;;;;5035260;28;20028;-65
2023/12/24 09:46:43;;;;;;;5.47;4.10;;;10.30;99.90;;;;;;5034979;28;20017;-65
2023/12/24 09:49:08;;;;;;;5.68;4.00;;;10.30;99.90;;;;;;5035194;28;20022;-65
2023/12/24 09:51:36;;;;;;;8.05;4.63;;;10.40;99.90;;;;;;5034770;28;20029;-64
2023/12/24 09:54:02;;;;;;;5.60;4.22;;;10.40;99.90;;;;;;5034649;28;20065;-65
2023/12/24 09:56:28;;;;;;;4.07;3.67;;;10.40;99.90;;;;;;5034852;28;20067;-65
2023/12/24 09:58:53;;;;;;;4.38;3.92;;;10.40;99.90;;;;;;5034627;28;20387;-65
2023/12/24 10:01:19;;;;;;;4.22;3.83;;;;;;;;;;5034979;28;20479;-64
2023/12/24 10:03:45;;;;;;;5.70;3.72;;;;;;;;;;5034651;28;20036;-65
2023/12/24 10:06:11;;;;;;;3.78;3.47;;;;;;;;;;5034535;28;20033;-65
2023/12/24 10:08:38;;;;;;;4.43;3.67;;;10.60;99.90;;;;;;5034640;28;20025;-65
2023/12/24 10:11:20;;;;;;;6.15;3.67;;;10.60;99.90;;;;;;5034183;28;20084;-64
2023/12/24 10:13:56;;;;;;;6.88;3.25;;;10.60;99.90;;;;;;5034553;28;20026;-64
2023/12/24 10:16:22;;;;;;;3.60;3.30;;;10.60;99.90;;;;;;5034303;28;20044;-64
2023/12/24 10:18:49;;;;;;;3.53;3.22;;;10.70;99.90;;;;;;5034520;28;20384;-64
2023/12/24 10:21:16;;;;;;;4.15;3.40;;;10.70;99.90;;;;;;5034449;28;20369;-64
2023/12/24 10:23:42;;;;;;;3.08;2.78;;;10.70;99.90;;;;;;5034397;28;20025;-64
2023/12/24 10:26:11;;;;;;;3.85;3.22;;;10.70;99.90;;;;;;5034638;28;20103;-64
2023/12/24 10:28:48;;;;;;;3.28;2.30;;;10.70;99.90;;;;;;5033330;28;20025;-65
2023/12/24 10:31:14;;;;;;;2.63;2.42;;;10.70;99.90;;;;;;5032904;28;20030;-64
2023/12/24 10:33:40;;;;;;;3.17;2.80;;;10.80;99.90;;;;;;5034218;28;20501;-64
2023/12/24 10:36:06;;;;;;;2.55;2.35;;;10.80;99.90;;;;;;5034235;28;20091;-65
2023/12/24 10:38:34;;;;;;;2.50;2.30;;;10.70;99.90;;;;;;5032660;28;20030;-64
2023/12/24 10:41:00;;;;;;;2.55;2.08;;;10.70;99.90;;;;;;5032880;28;20356;-64
2023/12/24 10:43:25;;;;;;;2.00;1.90;;;10.80;99.90;;;;;;5034025;28;20028;-64
2023/12/24 10:45:51;;;;;;;2.60;2.10;;;10.80;99.90;;;;;;5033932;28;20029;-65
2023/12/24 10:48:16;;;;;;;2.22;2.03;;;10.80;99.90;;;;;;5033930;28;20365;-65
2023/12/24 10:50:43;;;;;;;3.42;2.17;;;10.80;99.90;;;;;;5033770;28;20034;-64
2023/12/24 10:53:09;;;;;;;2.38;2.15;;;10.80;99.90;;;;;;5032708;28;20049;-65
2023/12/24 10:55:36;;;;;;;2.65;2.03;;;10.70;99.90;;;;;;5033449;28;20029;-64
2023/12/24 10:58:30;;;;;;;3.60;2.40;;;10.70;99.90;;;;;;5033462;28;20395;-65
2023/12/24 11:01:05;;;;;;;3.00;2.53;;;10.70;99.90;;;;;;5033386;28;20383;-63
2023/12/24 11:03:48;;;;;;;2.40;2.20;;;10.70;99.90;;;;;;5033634;28;20026;-64
2023/12/24 11:11:54;;;;;;;2.50;2.30;;;10.80;99.90;;;;;;5111068;27;20376;-64
2023/12/24 11:14:41;;;;;;;3.45;3.08;;;10.80;99.90;;;;;;5111046;28;20543;-64
2023/12/24 11:17:08;;;;;;;3.35;2.70;;;10.70;99.90;;;;;;5111020;28;20115;-64
2023/12/24 11:19:37;;;;;;;4.28;2.83;;;10.90;99.90;;;;;;5109741;28;20076;-64
2023/12/24 11:22:09;;;;;;;3.58;3.05;;;10.90;99.90;;;;;;5111149;28;20077;-65
2023/12/24 11:24:41;;;;;;;3.85;3.13;;;10.90;99.90;;;;;;5109878;28;20020;-65
2023/12/24 11:27:08;;;;;;;3.10;2.67;;;10.90;99.90;;;;;;5110752;28;20051;-64
2023/12/24 11:32:32;;;;;;;4.53;3.22;;;10.90;99.90;;;;;;5070513;28;20403;-63
2023/12/24 11:34:58;;;;;;;3.53;3.17;;;10.90;99.90;;;;;;5070491;28;20025;-62
2023/12/24 11:37:35;;;;;;;4.35;3.40;;;10.90;99.90;;;;;;5069273;28;20025;-63
2023/12/24 11:42:47;;;;;;;5.13;3.55;;;10.90;99.90;;;;;;5070607;28;20181;-63
2023/12/24 11:45:30;;;;;;;7.05;3.75;;;10.90;99.90;;;;;;5070630;28;20033;-64
2023/12/24 11:47:55;;;;;;;4.78;3.85;;;10.90;99.90;;;;;;5070766;28;20047;-64
2023/12/24 11:50:22;;;;;;;4.78;3.55;;;10.90;99.90;;;;;;5070601;28;20509;-64
2023/12/24 11:52:50;;;;;;;4.22;3.83;;;10.90;99.90;;;;;;5069206;28;20020;-64
2023/12/24 11:55:16;;;;;;;5.03;3.55;;;10.90;99.90;;;;;;5070293;28;20016;-64
2023/12/24 11:57:42;;;;;;;4.00;3.58;;;11.00;99.90;;;;;;5070306;28;20075;-64
2023/12/24 12:00:14;;;;;;;7.10;3.85;;;11.00;99.90;;;;;;5070040;28;20390;-64
2023/12/24 12:02:42;;;;;;;4.35;3.90;;;11.00;99.90;;;;;;5070298;28;20017;-65
2023/12/24 12:05:09;;;;;;;4.43;3.90;;;11.00;99.90;;;;;;5070105;28;20092;-64
2023/12/24 12:07:35;;;;;;;4.70;3.65;;;11.00;99.90;;;;;;5070052;28;20032;-65
2023/12/24 12:10:00;;;;;;;5.88;3.67;;;11.00;99.90;;;;;;5069798;28;20437;-65
2023/12/24 12:12:26;;;;;;;4.78;3.60;;;11.10;99.90;;;;;;5069965;28;20028;-64
2023/12/24 12:14:51;;;;;;;4.20;3.80;;;11.00;99.90;;;;;;5069926;28;20043;-64
2023/12/24 12:17:17;;;;;;;6.32;3.97;;;11.00;99.90;;;;;;5070073;28;20090;-65
2023/12/24 12:19:42;;;;;;;4.10;3.70;;;11.10;99.90;;;;;;5069956;28;20043;-65
2023/12/24 12:22:08;;;;;;;7.20;4.25;;;11.10;99.90;;;;;;5069716;28;20033;-65
2023/12/24 12:24:34;;;;;;;4.65;4.10;;;11.10;99.90;;;;;;5069384;28;20028;-65
2023/12/24 12:26:59;;;;;;;4.50;3.88;;;11.10;99.90;;;;;;5069616;28;20020;-67
2023/12/24 12:29:25;;;;;;;5.10;4.07;;;11.10;99.90;;;;;;5069343;28;20031;-67
2023/12/24 12:31:57;;;;;;;5.75;4.40;;;11.10;99.90;;;;;;5069829;28;20032;-68
2023/12/24 12:34:22;;;;;;;6.45;4.50;;;11.20;99.90;;;;;;5069348;28;20024;-67
2023/12/24 12:36:48;;;;;;;6.90;4.70;;;11.20;99.90;;;;;;5069543;28;20058;-67
2023/12/24 12:39:13;;;;;;;5.65;4.10;;;11.20;99.90;;;;;;5069598;28;20044;-67
2023/12/24 12:41:39;;;;;;;5.85;4.65;;;11.20;99.90;;;;;;5069196;28;20406;-67
2023/12/24 12:44:05;;;;;;;9.10;4.57;;;11.20;99.90;;;;;;5068992;28;20025;-66
2023/12/24 12:46:30;;;;;;;5.53;4.28;;;11.20;99.90;;;;;;5069381;28;20028;-66
2023/12/24 12:48:56;;;;;;;8.10;4.53;;;11.30;99.90;;;;;;5068971;28;20020;-66
2023/12/24 12:51:22;;;;;;;6.90;4.20;;;11.20;99.90;;;;;;5069271;28;20040;-66
2023/12/24 12:53:47;;;;;;;5.63;4.18;;;11.30;99.90;;;;;;5057120;28;20478;-66
2023/12/24 12:56:13;;;;;;;7.05;3.97;;;11.20;99.90;;;;;;5055947;28;20146;-66
2023/12/24 12:58:38;;;;;;;4.95;4.38;;;11.30;99.90;;;;;;5056142;28;20569;-67
2023/12/24 13:01:04;;;;;;;6.40;4.50;;;11.20;99.90;;;;;;5055770;28;20117;-66